Time;durP1;ratioP1;P1;durP2;ratioP2;P2;SDS_P1;SDS_P2;PMS_P1;PMS_P2;Temp;Humidity;BMP_temperature;BMP_pressure;BME280_temperature;BME280_humidity;BME280_pressure;Samples;Min_cycle;Max_cycle;Signal;HPM_P1;HPM_P2
2023/08/31 00:01:48;;;;;;;5.10;3.07;;;12.60;99.90;;;;;;4997098;28;20215;-84
2023/08/31 00:04:15;;;;;;;2.43;2.10;;;12.60;99.90;;;;;;4996127;28;20230;-82
2023/08/31 00:06:45;;;;;;;3.20;2.37;;;12.60;99.90;;;;;;4996540;28;20238;-84
2023/08/31 00:09:11;;;;;;;3.10;2.10;;;12.60;99.90;;;;;;4995034;28;20207;-83
2023/08/31 00:11:40;;;;;;;3.87;2.50;;;12.60;99.90;;;;;;4997516;28;20199;-84
2023/08/31 00:14:08;;;;;;;3.03;2.53;;;12.70;99.90;;;;;;5001732;28;20207;-85
2023/08/31 00:16:36;;;;;;;2.73;2.20;;;12.50;99.90;;;;;;4996552;28;20311;-84
2023/08/31 00:19:04;;;;;;;2.90;2.30;;;12.50;99.90;;;;;;4996366;28;20265;-84
2023/08/31 00:21:31;;;;;;;4.10;2.27;;;12.50;99.90;;;;;;5003019;28;20242;-84
2023/08/31 00:23:59;;;;;;;3.50;2.30;;;12.40;99.90;;;;;;4996996;28;20717;-83
2023/08/31 00:26:30;;;;;;;2.67;2.13;;;12.40;99.90;;;;;;4996439;28;20230;-84
2023/08/31 00:28:58;;;;;;;2.67;2.23;;;12.40;99.90;;;;;;4991146;28;20239;-82
2023/08/31 00:31:27;;;;;;;4.57;2.50;;;12.40;99.90;;;;;;4997053;28;20310;-83
2023/08/31 00:33:56;;;;;;;4.03;2.50;;;12.40;99.90;;;;;;4998227;28;20211;-81
2023/08/31 00:36:23;;;;;;;2.73;2.20;;;12.40;99.90;;;;;;5016160;28;20721;-83
2023/08/31 00:38:50;;;;;;;4.00;2.40;;;12.30;99.90;;;;;;5006853;28;20211;-83
2023/08/31 00:41:17;;;;;;;2.97;2.50;;;12.40;99.90;;;;;;4988921;28;20199;-83
2023/08/31 00:43:46;;;;;;;3.33;2.53;;;12.40;99.90;;;;;;4990635;28;20211;-83
2023/08/31 00:46:14;;;;;;;3.73;2.70;;;12.40;99.90;;;;;;4996337;28;20241;-84
2023/08/31 00:48:41;;;;;;;3.20;2.73;;;12.40;99.90;;;;;;5003524;28;20679;-83
2023/08/31 00:51:10;;;;;;;5.90;2.80;;;12.40;99.90;;;;;;5009599;28;20207;-83
2023/08/31 00:53:37;;;;;;;6.80;3.17;;;12.60;99.90;;;;;;5005324;28;20207;-84
2023/08/31 00:56:05;;;;;;;6.03;2.90;;;12.50;99.90;;;;;;5007590;28;20213;-84
2023/08/31 00:58:32;;;;;;;2.90;2.60;;;12.60;99.90;;;;;;4996731;28;20607;-85
2023/08/31 01:01:15;;;;;;;4.23;3.30;;;12.60;99.90;;;;;;5003327;28;20643;-85
2023/08/31 01:04:05;;;;;;;4.73;3.27;;;12.70;99.90;;;;;;5014863;28;20206;-85
2023/08/31 01:07:04;;;;;;;4.50;3.13;;;12.70;99.90;;;;;;5018237;28;20230;-84
2023/08/31 01:09:51;;;;;;;5.47;3.37;;;12.70;99.90;;;;;;4989000;28;20207;-84
2023/08/31 01:12:38;;;;;;;5.40;3.50;;;12.70;99.90;;;;;;4996876;28;20210;-83
2023/08/31 01:15:09;;;;;;;8.23;3.90;;;12.70;99.90;;;;;;5012709;28;20238;-83
2023/08/31 01:17:54;;;;;;;4.77;3.43;;;12.80;99.90;;;;;;5011629;28;20230;-85
2023/08/31 01:20:33;;;;;;;5.07;3.77;;;12.80;99.90;;;;;;5003780;28;20207;-84
2023/08/31 01:23:07;;;;;;;5.63;3.67;;;12.90;99.90;;;;;;5013877;28;20234;-84
2023/08/31 01:25:36;;;;;;;6.13;4.00;;;13.00;99.90;;;;;;5022086;28;20206;-84
2023/08/31 01:28:05;;;;;;;5.70;3.43;;;12.90;99.90;;;;;;5015737;28;20563;-85
2023/08/31 01:30:34;;;;;;;5.73;3.57;;;12.90;99.90;;;;;;5005205;28;20219;-84
2023/08/31 01:33:02;;;;;;;6.20;3.53;;;13.00;99.90;;;;;;5018291;28;20211;-84
2023/08/31 01:35:38;;;;;;;5.40;3.90;;;13.00;99.90;;;;;;5021761;28;20226;-85
2023/08/31 01:38:10;;;;;;;4.93;3.40;;;13.00;99.90;;;;;;5006963;28;20206;-82
2023/08/31 01:40:46;;;;;;;6.90;4.10;;;13.00;99.90;;;;;;5007372;28;20218;-82
2023/08/31 01:43:14;;;;;;;6.40;4.10;;;13.00;99.90;;;;;;4994742;28;20202;-81
2023/08/31 01:45:42;;;;;;;8.80;5.03;;;13.00;99.90;;;;;;4998493;28;20234;-83
2023/08/31 01:48:09;;;;;;;6.93;4.50;;;13.00;99.90;;;;;;5009353;28;20211;-83
2023/08/31 01:50:38;;;;;;;8.73;4.50;;;12.90;99.90;;;;;;4987081;28;20222;-84
2023/08/31 01:53:06;;;;;;;6.00;4.63;;;12.90;99.90;;;;;;5001595;28;20249;-84
2023/08/31 01:55:35;;;;;;;9.93;5.63;;;12.80;99.90;;;;;;5000383;28;20548;-82
2023/08/31 01:58:02;;;;;;;8.17;5.87;;;12.70;99.90;;;;;;5008977;28;20264;-82
2023/08/31 02:00:34;;;;;;;6.97;5.30;;;12.70;99.90;;;;;;5005797;28;20233;-84
2023/08/31 02:03:02;;;;;;;7.10;5.23;;;12.70;99.90;;;;;;5003025;28;20200;-82
2023/08/31 02:05:29;;;;;;;11.43;6.30;;;12.70;99.90;;;;;;5008861;28;20211;-83
2023/08/31 02:07:56;;;;;;;8.63;5.73;;;12.70;99.90;;;;;;4997817;28;20202;-80
2023/08/31 02:10:23;;;;;;;8.40;5.53;;;12.70;99.90;;;;;;5012450;28;20214;-79
2023/08/31 02:12:49;;;;;;;5.60;3.70;;;12.70;99.90;;;;;;5009829;28;20215;-83
2023/08/31 02:15:16;;;;;;;4.23;3.40;;;12.60;99.90;;;;;;4993103;28;20265;-81
2023/08/31 02:17:43;;;;;;;5.90;4.33;;;12.70;99.90;;;;;;4993519;28;20205;-82
2023/08/31 02:20:11;;;;;;;7.00;4.77;;;12.50;99.90;;;;;;5012627;28;20224;-82
2023/08/31 02:22:38;;;;;;;7.57;4.63;;;12.50;99.90;;;;;;4996071;28;20897;-83
2023/08/31 02:25:05;;;;;;;6.80;4.90;;;12.50;99.90;;;;;;5012019;28;20202;-80
2023/08/31 02:27:32;;;;;;;5.50;4.27;;;12.40;99.90;;;;;;4998390;28;20252;-81
2023/08/31 02:29:59;;;;;;;6.23;4.77;;;12.40;99.90;;;;;;5010549;28;20269;-81
2023/08/31 02:32:25;;;;;;;7.57;5.00;;;12.40;99.90;;;;;;4991053;28;20230;-79
2023/08/31 02:34:52;;;;;;;6.40;4.63;;;12.40;99.90;;;;;;5012226;28;20293;-81
2023/08/31 02:37:19;;;;;;;7.17;4.73;;;12.40;99.90;;;;;;4994218;28;20207;-81
2023/08/31 02:39:46;;;;;;;7.03;4.10;;;12.40;99.90;;;;;;4993872;28;20207;-81
2023/08/31 02:42:14;;;;;;;8.73;4.63;;;12.40;99.90;;;;;;4986460;28;20242;-81
2023/08/31 02:44:41;;;;;;;6.37;4.60;;;12.40;99.90;;;;;;5006030;28;20264;-80
2023/08/31 02:47:08;;;;;;;8.37;4.90;;;12.40;99.90;;;;;;5000922;28;20231;-82
2023/08/31 02:49:35;;;;;;;9.17;5.20;;;12.40;99.90;;;;;;5011913;28;20288;-83
2023/08/31 02:52:02;;;;;;;9.57;5.63;;;12.40;99.90;;;;;;5012422;28;20210;-82
2023/08/31 02:54:29;;;;;;;8.83;6.10;;;12.40;99.90;;;;;;4995616;28;20199;-81
2023/08/31 02:56:57;;;;;;;11.83;7.40;;;12.30;99.90;;;;;;4994834;28;20207;-79
2023/08/31 02:59:24;;;;;;;11.90;7.57;;;12.30;99.90;;;;;;4993216;28;20322;-81
2023/08/31 03:01:51;;;;;;;12.63;7.30;;;12.30;99.90;;;;;;4993462;28;20231;-81
2023/08/31 03:04:18;;;;;;;13.33;8.10;;;12.40;99.90;;;;;;5004964;28;20203;-80
2023/08/31 03:06:45;;;;;;;9.93;6.83;;;12.40;99.90;;;;;;4992258;28;20649;-82
2023/08/31 03:09:13;;;;;;;13.33;6.63;;;12.30;99.90;;;;;;5000065;28;20338;-81
2023/08/31 03:11:40;;;;;;;10.80;7.10;;;12.30;99.90;;;;;;5008367;28;20214;-80
2023/08/31 03:14:09;;;;;;;12.33;6.53;;;12.30;99.90;;;;;;4995043;28;20226;-82
2023/08/31 03:16:36;;;;;;;11.67;6.83;;;12.30;99.90;;;;;;4991253;28;20234;-80
2023/08/31 03:19:03;;;;;;;11.43;6.80;;;12.30;99.90;;;;;;4996489;28;20273;-80
2023/08/31 03:21:31;;;;;;;10.97;5.47;;;12.40;99.90;;;;;;5007022;28;20214;-78
2023/08/31 03:23:57;;;;;;;9.87;5.40;;;12.40;99.90;;;;;;4994422;28;20265;-78
2023/08/31 03:26:25;;;;;;;9.17;6.03;;;12.40;99.90;;;;;;4992218;28;20223;-78
2023/08/31 03:28:52;;;;;;;8.37;5.60;;;12.40;99.90;;;;;;5020463;28;20206;-79
2023/08/31 03:31:20;;;;;;;8.17;5.70;;;12.40;99.90;;;;;;4999133;28;20230;-82
2023/08/31 03:33:46;;;;;;;7.97;5.53;;;12.30;99.90;;;;;;4998469;28;20223;-81
2023/08/31 03:36:13;;;;;;;8.23;5.47;;;12.40;99.90;;;;;;5004279;28;20215;-80
2023/08/31 03:38:40;;;;;;;8.67;6.47;;;12.40;99.90;;;;;;4998890;28;20730;-81
2023/08/31 03:41:07;;;;;;;9.10;6.00;;;12.50;99.90;;;;;;5011501;28;20348;-77
2023/08/31 03:43:34;;;;;;;6.50;5.33;;;12.50;99.90;;;;;;4986905;28;20206;-79
2023/08/31 03:46:01;;;;;;;8.43;5.80;;;12.50;99.90;;;;;;5005718;28;20258;-81
2023/08/31 03:48:28;;;;;;;10.40;6.17;;;12.60;99.90;;;;;;4999816;28;20234;-80
2023/08/31 03:50:55;;;;;;;8.33;6.60;;;12.50;99.90;;;;;;4988434;28;20623;-79
2023/08/31 03:53:22;;;;;;;8.73;6.93;;;12.40;99.90;;;;;;4989572;28;20668;-79
2023/08/31 03:55:49;;;;;;;10.03;7.20;;;12.40;99.90;;;;;;5005667;28;20206;-81
2023/08/31 03:58:16;;;;;;;10.13;7.30;;;12.40;99.90;;;;;;4993848;28;20207;-81
2023/08/31 04:00:44;;;;;;;10.90;7.40;;;12.40;99.90;;;;;;4993317;28;20295;-81
2023/08/31 04:03:11;;;;;;;11.77;8.23;;;12.40;99.90;;;;;;5010856;28;20202;-83
2023/08/31 04:05:38;;;;;;;14.10;8.53;;;12.50;99.90;;;;;;5013514;28;20211;-80
2023/08/31 04:08:07;;;;;;;11.67;7.97;;;12.40;99.90;;;;;;4997572;28;20577;-81
2023/08/31 04:10:34;;;;;;;14.47;9.30;;;12.40;99.90;;;;;;4998909;28;20269;-80
2023/08/31 04:13:01;;;;;;;15.87;10.00;;;12.40;99.90;;;;;;5007613;28;20255;-79
2023/08/31 04:15:28;;;;;;;15.87;9.90;;;12.30;99.90;;;;;;4992467;28;20242;-80
2023/08/31 04:17:55;;;;;;;17.43;9.80;;;12.40;99.90;;;;;;4993644;28;20234;-80
2023/08/31 04:20:22;;;;;;;17.80;10.90;;;12.40;99.90;;;;;;5003214;28;20291;-79
2023/08/31 04:22:50;;;;;;;16.57;10.47;;;12.50;99.90;;;;;;4991359;28;20218;-80
2023/08/31 04:25:17;;;;;;;16.70;9.83;;;12.50;99.90;;;;;;4994049;28;20198;-80
2023/08/31 04:27:45;;;;;;;15.17;9.43;;;12.50;99.90;;;;;;5000953;28;20555;-81
2023/08/31 04:30:12;;;;;;;14.63;8.57;;;12.50;99.90;;;;;;4992640;28;20207;-80
2023/08/31 04:32:40;;;;;;;12.73;8.57;;;12.60;99.90;;;;;;4990813;28;20214;-81
2023/08/31 04:35:07;;;;;;;15.20;8.30;;;12.60;99.90;;;;;;5015115;28;20202;-80
2023/08/31 04:37:34;;;;;;;12.43;8.60;;;12.60;99.90;;;;;;4988567;28;20207;-80
2023/08/31 04:40:03;;;;;;;13.97;8.40;;;12.60;99.90;;;;;;4991384;28;20204;-80
2023/08/31 04:42:30;;;;;;;16.03;8.30;;;12.60;99.90;;;;;;4993408;28;20207;-81
2023/08/31 04:44:57;;;;;;;14.73;8.67;;;12.60;99.90;;;;;;4998223;28;20199;-82
2023/08/31 04:47:24;;;;;;;16.43;7.93;;;12.60;99.90;;;;;;4998075;28;20231;-81
2023/08/31 04:49:51;;;;;;;15.07;9.43;;;12.60;99.90;;;;;;4997045;28;20200;-80
2023/08/31 04:52:18;;;;;;;15.30;8.70;;;12.60;99.90;;;;;;5000812;28;20234;-81
2023/08/31 04:54:45;;;;;;;16.17;9.07;;;12.70;99.90;;;;;;4986309;28;20203;-80
2023/08/31 04:57:11;;;;;;;12.43;8.50;;;12.60;99.90;;;;;;5010507;28;20622;-81
2023/08/31 04:59:38;;;;;;;16.33;9.00;;;12.60;99.90;;;;;;5009592;28;20207;-80
2023/08/31 05:02:05;;;;;;;12.50;8.13;;;12.60;99.90;;;;;;4997379;28;20222;-80
2023/08/31 05:04:32;;;;;;;14.30;8.50;;;12.60;99.90;;;;;;4995614;28;20196;-82
2023/08/31 05:06:59;;;;;;;12.70;8.17;;;12.60;99.90;;;;;;4988019;28;20226;-81
2023/08/31 05:09:26;;;;;;;13.47;8.33;;;12.70;99.90;;;;;;5009181;28;20195;-81
2023/08/31 05:11:53;;;;;;;16.00;8.43;;;12.70;99.90;;;;;;4992531;28;20207;-81
2023/08/31 05:14:21;;;;;;;12.60;7.77;;;12.70;99.90;;;;;;5001116;28;20210;-81
2023/08/31 05:16:51;;;;;;;17.27;8.97;;;12.60;99.90;;;;;;4999515;28;20207;-81
2023/08/31 05:19:19;;;;;;;15.93;9.07;;;12.70;99.90;;;;;;5000839;28;20246;-83
2023/08/31 05:21:46;;;;;;;14.03;8.30;;;12.70;99.90;;;;;;5001671;28;20659;-82
2023/08/31 05:24:23;;;;;;;13.13;8.70;;;12.80;99.90;;;;;;5007186;28;20196;-83
2023/08/31 05:26:50;;;;;;;13.93;7.90;;;12.90;99.90;;;;;;5014217;28;20313;-84
2023/08/31 05:29:17;;;;;;;15.83;8.73;;;12.80;99.90;;;;;;5017871;28;20221;-80
2023/08/31 05:31:44;;;;;;;14.27;8.83;;;12.80;99.90;;;;;;5001986;28;20222;-80
2023/08/31 05:34:16;;;;;;;13.53;8.87;;;12.80;99.90;;;;;;5002931;28;20649;-81
2023/08/31 05:36:46;;;;;;;16.50;9.60;;;12.80;99.90;;;;;;4994507;28;20203;-81
2023/08/31 05:39:13;;;;;;;13.77;9.13;;;12.80;99.90;;;;;;5010458;28;20556;-82
2023/08/31 05:41:45;;;;;;;16.40;9.53;;;12.90;99.90;;;;;;4996018;28;20590;-83
2023/08/31 05:44:12;;;;;;;20.30;10.20;;;13.00;99.90;;;;;;5003019;28;20203;-84
2023/08/31 05:46:40;;;;;;;16.27;9.63;;;13.00;99.90;;;;;;4995813;28;20218;-82
2023/08/31 05:49:07;;;;;;;14.87;9.93;;;13.10;99.90;;;;;;5002300;28;20306;-85
2023/08/31 05:51:35;;;;;;;20.20;10.00;;;13.20;99.90;;;;;;4991379;28;20219;-82
2023/08/31 05:54:02;;;;;;;13.23;8.67;;;13.30;99.90;;;;;;4994057;28;20236;-79
2023/08/31 05:56:30;;;;;;;15.40;8.87;;;13.30;99.90;;;;;;4986013;28;20648;-83
2023/08/31 05:58:57;;;;;;;15.60;8.87;;;13.40;99.90;;;;;;4999206;28;20290;-81
2023/08/31 06:01:28;;;;;;;11.40;7.83;;;13.40;99.90;;;;;;4994906;28;20567;-85
2023/08/31 06:03:56;;;;;;;12.47;7.97;;;13.40;99.90;;;;;;4991848;28;20283;-86
2023/08/31 06:06:23;;;;;;;12.47;7.13;;;13.50;99.90;;;;;;4985438;28;20715;-82
2023/08/31 06:08:51;;;;;;;16.27;7.77;;;13.50;99.90;;;;;;4990343;28;20612;-86
2023/08/31 06:11:21;;;;;;;16.27;7.60;;;13.80;99.90;;;;;;4989270;28;20204;-87
2023/08/31 06:13:48;;;;;;;11.73;7.20;;;13.70;99.90;;;;;;4995477;28;20277;-84
2023/08/31 06:16:15;;;;;;;13.00;7.17;;;13.70;99.90;;;;;;4987699;28;20226;-84
2023/08/31 06:18:44;;;;;;;10.17;6.77;;;13.90;99.90;;;;;;4978675;28;20291;-87
2023/08/31 06:21:11;;;;;;;9.77;6.97;;;13.90;99.90;;;;;;4984001;28;20207;-84
2023/08/31 06:23:37;;;;;;;11.37;6.63;;;14.00;99.90;;;;;;4995461;28;20261;-84
2023/08/31 06:26:04;;;;;;;11.53;5.63;;;14.10;99.90;;;;;;4987590;28;20195;-82
2023/08/31 06:28:37;;;;;;;8.23;5.20;;;14.20;99.90;;;;;;4984984;28;20668;-87
2023/08/31 06:31:04;;;;;;;7.37;4.63;;;14.10;99.90;;;;;;4993178;28;20258;-83
2023/08/31 06:33:32;;;;;;;7.57;5.27;;;14.20;99.90;;;;;;4994777;28;20322;-86
2023/08/31 06:36:00;;;;;;;7.83;4.83;;;14.10;99.90;;;;;;5009174;28;20192;-86
2023/08/31 06:38:29;;;;;;;7.27;5.10;;;14.10;99.90;;;;;;5005790;28;20247;-87
2023/08/31 06:40:58;;;;;;;7.07;4.50;;;14.10;99.90;;;;;;4990776;28;20203;-86
2023/08/31 06:43:27;;;;;;;6.07;4.23;;;14.20;99.90;;;;;;4993775;28;20200;-85
2023/08/31 06:45:54;;;;;;;9.67;4.47;;;14.20;99.90;;;;;;4990901;28;20208;-85
2023/08/31 06:48:25;;;;;;;10.57;4.47;;;14.20;99.90;;;;;;4998156;28;20967;-86
2023/08/31 06:50:53;;;;;;;6.07;4.40;;;14.30;99.90;;;;;;4992421;28;20207;-87
2023/08/31 06:53:20;;;;;;;6.30;4.47;;;14.20;99.90;;;;;;4992592;28;20197;-89
2023/08/31 06:55:47;;;;;;;5.93;3.87;;;14.30;99.90;;;;;;4985237;28;20210;-80
2023/08/31 06:58:13;;;;;;;4.40;3.47;;;14.40;99.90;;;;;;4988751;28;20207;-82
2023/08/31 07:00:41;;;;;;;6.13;4.03;;;14.50;99.90;;;;;;4991399;28;20215;-83
2023/08/31 07:05:45;;;;;;;5.70;3.77;;;14.60;99.90;;;;;;4987862;28;20238;-86
2023/08/31 07:08:16;;;;;;;7.25;3.78;;;14.70;99.90;;;;;;4968709;28;20263;-87
2023/08/31 07:10:47;;;;;;;5.03;3.13;;;14.80;99.90;;;;;;4978784;28;20204;-86
2023/08/31 07:13:17;;;;;;;7.13;3.53;;;14.90;99.90;;;;;;4973380;28;20202;-86
2023/08/31 07:15:45;;;;;;;6.30;3.17;;;15.00;99.90;;;;;;4963828;28;20244;-86
2023/08/31 07:18:14;;;;;;;7.93;3.33;;;15.00;99.90;;;;;;4976878;28;20259;-87
2023/08/31 07:20:41;;;;;;;6.05;3.38;;;15.00;99.90;;;;;;4973833;28;20325;-87
2023/08/31 07:23:12;;;;;;;6.32;3.78;;;15.40;99.90;;;;;;4997058;28;20298;-87
2023/08/31 07:25:45;;;;;;;5.38;3.78;;;15.90;99.90;;;;;;4972275;28;20207;-86
2023/08/31 07:28:24;;;;;;;7.18;3.95;;;16.50;99.90;;;;;;4969339;28;20242;-90
2023/08/31 07:31:06;;;;;;;5.22;3.70;;;17.10;99.90;;;;;;4973523;28;20217;-86
2023/08/31 07:33:52;;;;;;;6.40;3.67;;;17.70;99.90;;;;;;4972227;28;20590;-92
2023/08/31 07:36:27;;;;;;;7.53;3.72;;;18.50;99.90;;;;;;4950789;28;20213;-90
2023/08/31 07:39:29;;;;;;;5.55;4.03;;;18.90;99.90;;;;;;4970347;28;20204;-94
2023/08/31 07:42:51;;;;;;;5.03;3.83;;;19.40;99.90;;;;;;4915628;29;20274;-94
2023/08/31 07:45:30;;;;;;;6.20;3.22;;;19.40;99.90;;;;;;4928943;28;20225;-94
2023/08/31 07:48:11;;;;;;;4.90;3.35;;;19.60;99.90;;;;;;4966888;28;20216;-93
2023/08/31 07:51:49;;;;;;;5.25;3.63;;;19.70;99.90;;;;;;4969825;28;20204;-93
2023/08/31 07:54:36;;;;;;;6.57;3.45;;;20.10;99.90;;;;;;4959827;28;20244;-90
2023/08/31 07:57:36;;;;;;;4.80;3.20;;;20.30;99.90;;;;;;4964224;28;20567;-93
2023/08/31 08:00:52;;;;;;;5.68;3.70;;;20.90;99.90;;;;;;4967474;28;20200;-93
2023/08/31 08:08:30;;;;;;;6.60;4.03;;;20.90;99.90;;;;;;4999800;28;20250;-96
2023/08/31 08:11:59;;;;;;;;;;;;;;;;;;;;;
2023/08/31 08:15:42;;;;;;;6.80;3.22;;;20.10;99.90;;;;;;4938259;29;20244;-94
2023/08/31 08:27:20;;;;;;;;;;;;;;;;;;;;;
2023/08/31 08:30:51;;;;;;;4.20;3.03;;;19.60;99.90;;;;;;4744397;30;20240;-94
2023/08/31 08:34:40;;;;;;;;;;;;;;;;;;;;;
2023/08/31 08:41:23;;;;;;;3.55;2.90;;;18.80;99.90;;;;;;4969330;23;20250;-84
2023/08/31 08:43:51;;;;;;;6.70;2.80;;;19.10;99.90;;;;;;4983179;28;20325;-82
2023/08/31 08:46:18;;;;;;;5.22;3.58;;;19.50;99.90;;;;;;5005596;28;20218;-83
2023/08/31 08:48:47;;;;;;;4.15;2.80;;;19.80;99.90;;;;;;5009131;28;20623;-82
2023/08/31 08:51:14;;;;;;;6.80;3.10;;;19.50;99.90;;;;;;5007293;28;20247;-82
2023/08/31 08:53:43;;;;;;;4.65;2.85;;;19.60;99.90;;;;;;4989630;28;20207;-82
2023/08/31 08:56:10;;;;;;;3.80;2.83;;;19.80;99.90;;;;;;5008607;28;20207;-84
2023/08/31 08:58:37;;;;;;;5.25;2.50;;;20.00;99.90;;;;;;5009563;28;20199;-81
2023/08/31 09:01:07;;;;;;;3.38;2.38;;;20.10;99.90;;;;;;4987945;28;20604;-82
2023/08/31 09:03:35;;;;;;;4.43;2.90;;;20.50;99.90;;;;;;5009281;28;20803;-84
2023/08/31 09:06:04;;;;;;;4.07;2.70;;;20.80;99.90;;;;;;5007634;28;20214;-80
2023/08/31 09:08:31;;;;;;;5.55;3.05;;;20.70;99.90;;;;;;5012119;28;20226;-83
2023/08/31 09:10:58;;;;;;;6.10;2.78;;;20.60;99.90;;;;;;4984403;28;20672;-83
2023/08/31 09:13:29;;;;;;;4.35;2.20;;;20.50;99.90;;;;;;4992548;28;20344;-84
2023/08/31 09:15:59;;;;;;;4.65;2.83;;;20.30;99.90;;;;;;5000912;28;20217;-83
2023/08/31 09:18:28;;;;;;;5.97;2.70;;;20.40;99.90;;;;;;4989863;28;20559;-84
2023/08/31 09:20:58;;;;;;;5.70;2.50;;;20.10;99.90;;;;;;5007585;28;20203;-81
2023/08/31 09:23:25;;;;;;;3.53;2.22;;;19.80;99.90;;;;;;5007088;28;20217;-81
2023/08/31 09:25:54;;;;;;;5.47;2.58;;;19.60;99.90;;;;;;5009710;28;20210;-84
2023/08/31 09:28:26;;;;;;;5.32;2.55;;;19.50;99.90;;;;;;5011791;28;20230;-83
2023/08/31 09:31:06;;;;;;;5.97;2.50;;;19.40;99.90;;;;;;4996725;28;20644;-83
2023/08/31 09:33:37;;;;;;;6.30;2.50;;;19.40;99.90;;;;;;5025326;28;20222;-80
2023/08/31 09:36:07;;;;;;;6.97;2.45;;;19.10;99.90;;;;;;5023358;28;20210;-82
2023/08/31 09:38:44;;;;;;;4.82;2.22;;;18.90;99.90;;;;;;5025129;28;20202;-81
2023/08/31 09:41:12;;;;;;;4.32;2.40;;;18.70;99.90;;;;;;5024689;28;20225;-79
2023/08/31 09:43:39;;;;;;;6.88;2.85;;;18.60;99.90;;;;;;5029348;28;20489;-80
2023/08/31 09:46:06;;;;;;;4.93;2.17;;;18.40;99.90;;;;;;5026164;28;20217;-80
2023/08/31 09:48:34;;;;;;;4.22;2.40;;;18.40;99.90;;;;;;5029630;28;20239;-80
2023/08/31 09:51:03;;;;;;;4.93;2.70;;;18.30;99.90;;;;;;5023715;28;20532;-80
2023/08/31 09:53:31;;;;;;;3.58;2.47;;;18.10;99.90;;;;;;5031139;28;20216;-80
2023/08/31 09:55:58;;;;;;;4.72;3.00;;;18.20;99.90;;;;;;5009974;28;20279;-80
2023/08/31 09:58:25;;;;;;;5.80;3.25;;;18.20;99.90;;;;;;5031960;28;20220;-83
2023/08/31 10:00:54;;;;;;;5.82;3.30;;;18.40;99.90;;;;;;5005026;28;20221;-82
2023/08/31 10:03:21;;;;;;;5.90;3.53;;;18.50;99.90;;;;;;5020147;28;20225;-81
2023/08/31 10:05:49;;;;;;;5.10;3.22;;;18.50;99.90;;;;;;5023186;28;20203;-81
2023/08/31 10:08:18;;;;;;;5.20;2.90;;;18.40;99.90;;;;;;5015459;28;20239;-82
2023/08/31 10:10:46;;;;;;;7.25;3.22;;;18.40;99.90;;;;;;5014902;28;20202;-80
2023/08/31 10:13:15;;;;;;;6.22;3.10;;;18.40;99.90;;;;;;5012548;28;20197;-79
2023/08/31 10:15:44;;;;;;;4.10;2.95;;;18.20;99.90;;;;;;5026764;28;20214;-78
2023/08/31 10:18:11;;;;;;;5.05;3.50;;;18.10;99.90;;;;;;5029823;28;20212;-78
2023/08/31 10:20:46;;;;;;;4.40;3.28;;;18.10;99.90;;;;;;5023888;28;20218;-78
2023/08/31 10:23:13;;;;;;;4.75;3.00;;;18.00;99.90;;;;;;5024266;28;20201;-80
2023/08/31 10:25:50;;;;;;;5.82;3.00;;;18.00;99.90;;;;;;5029364;28;20202;-81
2023/08/31 10:28:23;;;;;;;6.22;3.20;;;17.90;99.90;;;;;;5027149;28;20254;-80
2023/08/31 10:31:10;;;;;;;4.07;3.03;;;17.90;99.90;;;;;;5029291;28;20209;-82
2023/08/31 10:33:42;;;;;;;6.20;2.83;;;17.90;99.90;;;;;;5025481;28;20206;-81
2023/08/31 10:36:16;;;;;;;8.80;3.70;;;18.00;99.90;;;;;;5030875;28;20675;-79
2023/08/31 10:38:56;;;;;;;6.35;2.70;;;18.10;99.90;;;;;;5025205;28;20209;-81
2023/08/31 10:41:24;;;;;;;7.03;3.10;;;18.30;99.90;;;;;;5026599;28;20611;-81
2023/08/31 10:43:58;;;;;;;3.63;2.58;;;18.40;99.90;;;;;;5029261;28;20210;-81
2023/08/31 10:46:33;;;;;;;6.28;2.80;;;18.70;99.90;;;;;;5025779;28;20267;-81
2023/08/31 10:49:09;;;;;;;6.32;2.90;;;19.00;99.90;;;;;;5030184;28;20229;-82
2023/08/31 10:51:38;;;;;;;4.72;2.50;;;19.20;99.90;;;;;;5029533;28;20621;-83
2023/08/31 10:54:24;;;;;;;2.20;1.75;;;19.50;99.90;;;;;;5030356;28;20206;-81
2023/08/31 10:56:51;;;;;;;5.82;2.17;;;19.80;99.90;;;;;;5012887;28;20221;-83
2023/08/31 10:59:19;;;;;;;4.50;1.35;;;19.90;99.90;;;;;;5012585;28;20202;-81
2023/08/31 11:02:00;;;;;;;4.45;1.38;;;19.70;99.90;;;;;;5027967;28;20284;-80
2023/08/31 11:04:28;;;;;;;3.20;1.33;;;19.30;99.90;;;;;;5011007;28;20233;-83
2023/08/31 11:07:13;;;;;;;4.35;1.30;;;18.90;99.90;;;;;;5009183;28;20198;-83
2023/08/31 11:09:43;;;;;;;3.83;1.35;;;18.50;99.90;;;;;;5029985;28;20604;-87
2023/08/31 11:12:22;;;;;;;6.35;1.35;;;18.20;99.90;;;;;;5006718;28;20202;-87
2023/08/31 11:14:50;;;;;;;3.38;1.48;;;17.80;99.90;;;;;;5049646;28;20606;-87
2023/08/31 11:17:27;;;;;;;1.98;1.35;;;17.60;99.90;;;;;;5033877;28;20240;-88
2023/08/31 11:20:00;;;;;;;2.25;1.20;;;17.30;99.90;;;;;;5025700;28;20196;-90
2023/08/31 11:22:27;;;;;;;2.72;1.40;;;17.10;99.90;;;;;;5028941;28;20232;-86
2023/08/31 11:24:56;;;;;;;3.70;1.13;;;16.90;99.90;;;;;;5025462;28;20197;-84
2023/08/31 11:27:23;;;;;;;1.30;1.20;;;16.90;99.90;;;;;;5039166;28;20206;-84
2023/08/31 11:29:51;;;;;;;1.10;1.00;;;17.00;99.90;;;;;;5031433;28;20633;-83
2023/08/31 11:32:24;;;;;;;2.22;1.25;;;17.10;99.90;;;;;;5010012;28;20702;-85
2023/08/31 11:34:51;;;;;;;3.08;1.52;;;17.40;99.90;;;;;;4994749;28;20202;-82
2023/08/31 11:37:20;;;;;;;4.68;1.52;;;17.60;99.90;;;;;;5006428;28;20271;-82
2023/08/31 11:39:53;;;;;;;2.50;1.10;;;17.90;99.90;;;;;;5009241;28;20564;-83
2023/08/31 11:42:22;;;;;;;5.03;1.15;;;18.10;99.90;;;;;;5009275;28;20598;-83
2023/08/31 11:44:52;;;;;;;3.58;1.38;;;18.40;99.90;;;;;;5022062;28;20264;-83
2023/08/31 11:47:24;;;;;;;4.85;1.10;;;18.70;99.90;;;;;;5009493;28;20238;-81
2023/08/31 11:49:52;;;;;;;4.40;1.30;;;18.70;99.90;;;;;;5023662;28;20237;-82
2023/08/31 11:52:19;;;;;;;3.38;1.38;;;19.00;99.90;;;;;;5010261;28;20214;-84
2023/08/31 11:54:53;;;;;;;3.22;0.80;;;19.20;99.90;;;;;;5029619;28;20201;-83
2023/08/31 11:57:26;;;;;;;3.17;1.10;;;19.20;99.90;;;;;;5011735;28;20197;-84
2023/08/31 11:59:53;;;;;;;5.32;1.02;;;19.40;99.90;;;;;;5006548;28;20198;-84
2023/08/31 12:02:20;;;;;;;5.95;1.50;;;19.40;99.90;;;;;;5013885;28;20217;-86
2023/08/31 12:04:48;;;;;;;3.55;1.05;;;19.50;99.90;;;;;;5033364;28;20301;-84
2023/08/31 12:07:19;;;;;;;3.17;1.02;;;19.60;99.90;;;;;;5012952;28;20285;-84
2023/08/31 12:09:47;;;;;;;3.17;1.20;;;19.70;99.90;;;;;;5031419;28;20279;-84
2023/08/31 12:12:16;;;;;;;2.80;1.05;;;19.80;99.90;;;;;;5019811;28;20232;-86
2023/08/31 12:14:46;;;;;;;4.80;1.10;;;19.80;99.90;;;;;;5010299;28;20205;-84
2023/08/31 12:17:19;;;;;;;3.00;1.10;;;19.90;99.90;;;;;;5007371;28;20221;-86
2023/08/31 12:19:48;;;;;;;5.20;1.20;;;20.10;99.90;;;;;;5005584;28;20526;-84
2023/08/31 12:22:22;;;;;;;2.47;1.15;;;20.10;99.90;;;;;;5028005;28;20237;-84
2023/08/31 12:24:53;;;;;;;3.15;0.73;;;20.20;99.90;;;;;;5012807;28;20296;-86
2023/08/31 12:27:50;;;;;;;2.20;0.80;;;20.50;99.90;;;;;;5027352;28;20267;-83
2023/08/31 12:30:20;;;;;;;1.42;0.75;;;20.60;99.90;;;;;;5025931;28;20570;-82
2023/08/31 12:32:53;;;;;;;1.77;0.82;;;20.60;99.90;;;;;;5019772;28;20212;-82
2023/08/31 12:35:42;;;;;;;1.45;0.80;;;20.70;99.90;;;;;;4929006;28;20224;-82
2023/08/31 12:38:10;;;;;;;4.25;0.90;;;20.70;99.90;;;;;;5004268;28;20205;-83
2023/08/31 12:40:41;;;;;;;1.85;0.80;;;20.80;99.90;;;;;;5022402;28;20211;-82
2023/08/31 12:43:09;;;;;;;2.80;0.90;;;20.90;99.90;;;;;;5012412;28;20386;-84
2023/08/31 12:45:41;;;;;;;2.38;0.77;;;21.00;99.90;;;;;;5011251;28;20644;-81
2023/08/31 12:48:12;;;;;;;2.97;1.00;;;20.90;99.90;;;;;;5027533;28;20301;-84
2023/08/31 12:50:39;;;;;;;5.72;1.00;;;21.00;99.90;;;;;;5034764;28;20224;-85
2023/08/31 12:53:29;;;;;;;2.22;0.90;;;21.10;99.90;;;;;;5032524;28;20526;-85
2023/08/31 12:55:56;;;;;;;4.25;1.25;;;21.00;99.90;;;;;;5021604;28;20194;-83
2023/08/31 12:58:23;;;;;;;4.75;0.90;;;21.00;99.90;;;;;;5009110;28;20252;-83
2023/08/31 13:00:53;;;;;;;3.88;1.00;;;21.20;99.90;;;;;;5013270;28;20214;-81
2023/08/31 13:03:20;;;;;;;3.13;0.98;;;21.10;99.90;;;;;;5032410;28;20333;-78
2023/08/31 13:05:50;;;;;;;2.60;1.02;;;21.00;99.90;;;;;;5032160;28;20228;-82
2023/08/31 13:08:17;;;;;;;2.85;0.85;;;21.00;99.90;;;;;;5011745;28;20650;-80
2023/08/31 13:10:51;;;;;;;2.38;0.80;;;21.10;99.90;;;;;;5029244;28;20206;-84
2023/08/31 13:13:19;;;;;;;2.53;0.95;;;21.30;99.90;;;;;;5016506;28;20212;-84
2023/08/31 13:15:47;;;;;;;3.25;0.70;;;21.30;99.90;;;;;;5022164;28;20230;-83
2023/08/31 13:18:16;;;;;;;1.73;1.20;;;21.40;99.90;;;;;;5028495;28;20202;-82
2023/08/31 13:20:52;;;;;;;2.38;1.10;;;21.40;99.90;;;;;;5013255;28;20273;-83
2023/08/31 13:23:24;;;;;;;2.35;1.40;;;21.40;99.90;;;;;;5031101;28;20212;-85
2023/08/31 13:25:56;;;;;;;1.33;0.80;;;21.50;99.90;;;;;;5018648;28;20232;-83
2023/08/31 13:28:26;;;;;;;3.10;1.10;;;21.70;99.90;;;;;;5034769;28;20209;-81
2023/08/31 13:31:00;;;;;;;3.00;0.90;;;21.70;99.90;;;;;;5031653;28;20324;-82